This is the latest recevied weather packets stored in our database for station/object YD2UMH-10. If no packets are shown the sender has not sent any weather packets the latest 10 day(s).
| Time | Temp. | Humidity | Pressure | Rain* | Wind** | Luminosity | Snow |
|---|---|---|---|---|---|---|---|
| 1778220329 | 36.11° C | 98% | 988 hPa | - | - | 0 W/m² | - |
| 1778220007 | 38.33° C | 86% | 988 hPa | - | - | 0 W/m² | - |
| 1778219685 | 38.89° C | 84% | 988 hPa | - | - | 0 W/m² | - |
| 1778219363 | 37.22° C | 85% | 988 hPa | - | - | 0 W/m² | - |
| 1778219041 | 40.56° C | 76% | 988 hPa | - | - | 0 W/m² | - |
| 1778218719 | 38.89° C | 84% | 988 hPa | - | - | 0 W/m² | - |
| 1778218397 | 35.56° C | 98% | 988 hPa | - | - | 0 W/m² | - |
| 1778218075 | 36.67° C | 89% | 988 hPa | - | - | 0 W/m² | - |
| 1778217753 | 38.33° C | 80% | 988 hPa | - | - | 0 W/m² | - |
| 1778217431 | 42.22° C | 75% | 988 hPa | - | - | 0 W/m² | - |
| 1778217109 | 40.56° C | 78% | 988 hPa | - | - | 0 W/m² | - |
| 1778216787 | 42.22° C | 72% | 988 hPa | - | - | 0 W/m² | - |
| 1778216465 | 40° C | 81% | 988 hPa | - | - | 0 W/m² | - |
| 1778216143 | 39.44° C | 85% | 988 hPa | - | - | 0 W/m² | - |
| 1778215821 | 38.33° C | 84% | 988 hPa | - | - | 0 W/m² | - |
| 1778215499 | 41.11° C | 77% | 988 hPa | - | - | 0 W/m² | - |
| 1778215177 | 38.89° C | 87% | 989 hPa | - | - | 0 W/m² | - |
| 1778214855 | 38.89° C | 87% | 989 hPa | - | - | 0 W/m² | - |
| 1778214533 | 37.78° C | 90% | 989 hPa | - | - | 0 W/m² | - |
| 1778214211 | 37.78° C | 88% | 989 hPa | - | - | 0 W/m² | - |
| 1778213889 | 37.78° C | 92% | 989 hPa | - | - | 0 W/m² | - |
| 1778213567 | 38.89° C | 86% | 989 hPa | - | - | 0 W/m² | - |
| 1778213247 | 38.33° C | 89% | 989 hPa | - | - | 0 W/m² | - |
| 1778212923 | 36.11° C | 98% | 989 hPa | - | - | 0 W/m² | - |
| 1778212601 | 37.22° C | 92% | 989 hPa | - | - | 0 W/m² | - |
* Rain since midnight (hover to see other rain measurements)
** Current wind speed in m/s (hover to see current wind gust speed)